createdAt,value
2018-03-25T00:00:46.922Z,2.40
2018-03-25T00:03:14.482Z,2.30
2018-03-25T00:05:42.010Z,2.30
2018-03-25T00:08:09.580Z,2.20
2018-03-25T00:10:37.879Z,2.10
2018-03-25T00:13:05.426Z,2.10
2018-03-25T00:15:33.738Z,2.10
2018-03-25T00:18:01.289Z,2.10
2018-03-25T00:20:29.590Z,2.10
2018-03-25T00:22:57.908Z,2.00
2018-03-25T00:25:25.442Z,2.00
2018-03-25T00:27:53.758Z,2.10
2018-03-25T00:30:21.306Z,2.10
2018-03-25T00:32:49.669Z,2.00
2018-03-25T00:35:17.201Z,2.00
2018-03-25T00:37:44.746Z,2.00
2018-03-25T00:40:13.051Z,1.90
2018-03-25T00:42:40.618Z,1.90
2018-03-25T00:45:08.915Z,1.90
2018-03-25T00:47:36.469Z,1.90
2018-03-25T00:50:04.792Z,2.00
2018-03-25T00:52:32.352Z,2.00
2018-03-25T00:54:59.887Z,1.90
2018-03-25T00:57:27.442Z,1.90
2018-03-25T00:59:54.976Z,1.80
2018-03-25T01:02:22.546Z,1.80
2018-03-25T01:04:50.066Z,1.80
2018-03-25T01:07:17.627Z,1.90
2018-03-25T01:09:45.186Z,1.80
2018-03-25T01:12:12.719Z,1.90
2018-03-25T01:14:40.269Z,1.80
2018-03-25T01:17:08.567Z,1.80
2018-03-25T01:19:36.905Z,1.80
2018-03-25T01:22:04.442Z,1.70
2018-03-25T01:24:31.999Z,1.70
2018-03-25T01:27:00.312Z,1.70
2018-03-25T01:29:27.863Z,1.60
2018-03-25T01:31:56.166Z,1.70
2018-03-25T01:34:23.736Z,1.70
2018-03-25T01:36:51.279Z,1.60
2018-03-25T01:39:18.836Z,1.60
2018-03-25T01:41:46.372Z,1.60
2018-03-25T01:44:13.919Z,1.60
2018-03-25T01:46:42.214Z,1.70
2018-03-25T01:49:09.799Z,1.70
2018-03-25T01:51:37.334Z,1.60
2018-03-25T01:54:04.898Z,1.60
2018-03-25T01:56:32.435Z,1.50
2018-03-25T01:58:59.978Z,1.50
2018-03-25T02:01:27.528Z,1.50
2018-03-25T02:03:55.879Z,1.40
2018-03-25T02:06:23.406Z,1.40
2018-03-25T02:08:51.705Z,1.40
2018-03-25T02:11:19.248Z,1.40
2018-03-25T02:13:47.554Z,1.40
2018-03-25T02:16:15.867Z,1.40
2018-03-25T02:18:43.394Z,1.40
2018-03-25T02:21:10.953Z,1.30
2018-03-25T02:23:38.478Z,1.30
2018-03-25T02:26:06.040Z,1.30
2018-03-25T02:28:33.572Z,1.20
2018-03-25T02:31:01.155Z,1.20
2018-03-25T02:33:28.716Z,1.20
2018-03-25T02:35:56.275Z,1.10
2018-03-25T02:38:23.798Z,1.10
2018-03-25T02:40:51.361Z,1.10
2018-03-25T02:43:19.654Z,1.20
2018-03-25T02:45:47.981Z,1.10
2018-03-25T02:48:15.516Z,1.10
2018-03-25T02:50:43.839Z,1.00
2018-03-25T02:53:12.420Z,1.00
2018-03-25T02:55:39.980Z,1.10
2018-03-25T02:58:07.516Z,1.10
2018-03-25T03:00:35.072Z,1.10
2018-03-25T03:03:02.615Z,1.10
2018-03-25T03:05:30.211Z,1.00
2018-03-25T03:07:57.742Z,1.00
2018-03-25T03:10:25.294Z,0.90
2018-03-25T03:12:53.587Z,0.90
2018-03-25T03:15:21.903Z,1.00
2018-03-25T03:17:50.198Z,1.00
2018-03-25T03:20:17.750Z,1.00
2018-03-25T03:22:46.071Z,1.10
2018-03-25T03:25:13.614Z,1.00
2018-03-25T03:27:41.172Z,1.10
2018-03-25T03:30:09.480Z,1.10
2018-03-25T03:32:37.040Z,1.10
2018-03-25T03:35:05.335Z,1.10
2018-03-25T03:37:33.657Z,1.00
2018-03-25T03:40:01.206Z,1.00
2018-03-25T03:42:28.755Z,1.00
2018-03-25T03:44:57.060Z,1.00
2018-03-25T03:47:24.627Z,0.90
2018-03-25T03:49:52.944Z,0.90
2018-03-25T03:52:20.507Z,0.90
2018-03-25T03:54:48.045Z,1.00
2018-03-25T03:57:16.396Z,0.90
2018-03-25T03:59:43.938Z,0.90
2018-03-25T04:02:11.482Z,0.90
2018-03-25T04:04:39.034Z,1.00
2018-03-25T04:07:06.578Z,1.00
2018-03-25T04:09:34.110Z,1.00
2018-03-25T04:12:02.434Z,0.90
2018-03-25T04:14:29.965Z,0.90
2018-03-25T04:16:58.282Z,0.90
2018-03-25T04:19:25.819Z,0.90
2018-03-25T04:21:53.370Z,0.90
2018-03-25T04:24:20.931Z,0.80
2018-03-25T04:26:48.484Z,0.80
2018-03-25T04:29:16.027Z,0.80
2018-03-25T04:31:44.324Z,0.80
2018-03-25T04:34:11.894Z,0.80
2018-03-25T04:36:39.427Z,0.80
2018-03-25T04:39:06.979Z,0.80
2018-03-25T04:41:34.522Z,0.80
2018-03-25T04:44:02.071Z,0.70
2018-03-25T04:46:30.425Z,0.70
2018-03-25T04:48:57.946Z,0.60
2018-03-25T04:51:25.479Z,0.70
2018-03-25T04:53:53.038Z,0.80
2018-03-25T04:56:20.571Z,0.80
2018-03-25T04:58:48.138Z,0.80
2018-03-25T05:01:15.667Z,0.80
2018-03-25T05:03:43.218Z,0.80
2018-03-25T05:06:10.747Z,0.80
2018-03-25T05:08:38.298Z,0.80
2018-03-25T05:11:06.611Z,0.90
2018-03-25T05:13:34.170Z,0.90
2018-03-25T05:16:02.462Z,0.90
2018-03-25T05:18:30.779Z,0.90
2018-03-25T05:20:58.334Z,0.90
2018-03-25T05:23:25.882Z,0.90
2018-03-25T05:25:54.174Z,0.80
2018-03-25T05:28:22.494Z,0.90
2018-03-25T05:30:50.067Z,0.80
2018-03-25T05:33:17.619Z,0.80
2018-03-25T05:35:45.146Z,0.90
2018-03-25T05:38:12.691Z,0.90
2018-03-25T05:40:40.220Z,1.00
2018-03-25T05:43:08.551Z,1.10
2018-03-25T05:45:36.093Z,1.10
2018-03-25T05:48:04.394Z,1.30
2018-03-25T05:50:31.955Z,1.30
2018-03-25T05:53:00.249Z,1.40
2018-03-25T05:55:27.823Z,1.40
2018-03-25T05:57:55.360Z,1.50
2018-03-25T06:00:22.911Z,1.60
2018-03-25T06:02:50.442Z,1.70
2018-03-25T06:05:17.991Z,1.80
2018-03-25T06:07:45.519Z,1.80
2018-03-25T06:10:13.074Z,1.90
2018-03-25T06:12:40.622Z,2.00
2018-03-25T06:15:09.031Z,2.20
2018-03-25T06:17:36.566Z,2.10
2018-03-25T06:20:04.142Z,2.30
2018-03-25T06:22:31.771Z,2.40
2018-03-25T06:24:59.330Z,2.40
2018-03-25T06:27:26.913Z,2.50
2018-03-25T06:29:54.458Z,2.60
2018-03-25T06:32:22.751Z,2.80
2018-03-25T06:34:50.531Z,2.80
2018-03-25T06:37:18.083Z,2.80
2018-03-25T06:39:46.427Z,3.00
2018-03-25T06:42:13.960Z,3.00
2018-03-25T06:44:42.287Z,3.00
2018-03-25T06:47:09.819Z,3.00
2018-03-25T06:49:37.442Z,3.10
2018-03-25T06:52:04.975Z,3.10
2018-03-25T06:54:32.551Z,3.20
2018-03-25T06:57:00.117Z,3.30
2018-03-25T06:59:27.648Z,3.40
2018-03-25T07:01:55.257Z,3.50
2018-03-25T07:04:22.758Z,3.50
2018-03-25T07:06:50.327Z,3.70
2018-03-25T07:09:17.859Z,3.90
2018-03-25T07:11:46.183Z,4.00
2018-03-25T07:14:13.714Z,4.00
2018-03-25T07:16:42.034Z,4.20
2018-03-25T07:19:09.595Z,4.20
2018-03-25T07:21:37.161Z,4.30
2018-03-25T07:24:05.496Z,4.50
2018-03-25T07:26:33.058Z,4.50
2018-03-25T07:29:00.599Z,4.50
2018-03-25T07:31:28.911Z,4.60
2018-03-25T07:33:56.453Z,4.60
2018-03-25T07:36:24.786Z,4.80
2018-03-25T07:38:52.347Z,4.80
2018-03-25T07:41:19.919Z,5.00
2018-03-25T07:43:47.443Z,4.90
2018-03-25T07:46:15.379Z,4.90
2018-03-25T07:48:42.902Z,4.90
2018-03-25T07:51:10.455Z,5.00
2018-03-25T07:53:37.982Z,5.20
2018-03-25T07:56:05.546Z,5.30
2018-03-25T07:58:33.068Z,5.30
2018-03-25T08:01:00.615Z,5.40
2018-03-25T08:03:28.138Z,5.60
2018-03-25T08:05:56.422Z,5.80
2018-03-25T08:08:24.744Z,5.90
2018-03-25T08:10:52.268Z,5.80
2018-03-25T08:13:19.828Z,6.00
2018-03-25T08:15:47.361Z,6.20
2018-03-25T08:18:14.926Z,6.20
2018-03-25T08:20:42.466Z,6.20
2018-03-25T08:23:10.014Z,6.20
2018-03-25T08:25:37.552Z,6.50
2018-03-25T08:28:05.183Z,6.50
2018-03-25T08:30:32.723Z,6.60
2018-03-25T08:33:00.260Z,6.80
2018-03-25T08:35:36.186Z,6.90
2018-03-25T08:38:03.727Z,6.80
2018-03-25T08:40:31.248Z,7.00
2018-03-25T08:42:59.563Z,7.40
2018-03-25T08:45:27.089Z,7.40
2018-03-25T08:47:54.639Z,7.60
2018-03-25T08:50:22.149Z,7.70
2018-03-25T08:52:49.719Z,7.80
2018-03-25T08:55:17.239Z,7.90
2018-03-25T08:57:44.794Z,8.00
2018-03-25T09:00:21.178Z,7.90
2018-03-25T09:02:48.724Z,8.10
2018-03-25T09:05:17.009Z,8.30
2018-03-25T09:07:45.330Z,8.40
2018-03-25T09:10:12.845Z,8.30
2018-03-25T09:12:40.397Z,8.40
2018-03-25T09:15:07.914Z,8.50
2018-03-25T09:17:35.464Z,8.50
2018-03-25T09:20:03.035Z,8.60
2018-03-25T09:22:30.568Z,8.70
2018-03-25T09:24:58.085Z,8.80
2018-03-25T09:27:25.620Z,8.80
2018-03-25T09:29:53.156Z,8.70
2018-03-25T09:32:21.468Z,9.00
2018-03-25T09:34:48.981Z,8.90
2018-03-25T09:37:16.521Z,9.00
2018-03-25T09:39:44.080Z,9.30
2018-03-25T09:42:11.597Z,9.40
2018-03-25T09:44:39.154Z,9.50
2018-03-25T09:47:07.433Z,9.80
2018-03-25T09:49:34.986Z,9.70
2018-03-25T09:52:02.606Z,9.80
2018-03-25T09:54:30.145Z,9.80
2018-03-25T09:56:57.672Z,9.90
2018-03-25T09:59:25.989Z,10.00
2018-03-25T10:01:59.302Z,9.90
2018-03-25T10:04:26.860Z,10.10
2018-03-25T10:06:54.376Z,10.20
2018-03-25T10:09:21.939Z,10.10
2018-03-25T10:11:49.467Z,10.10
2018-03-25T10:14:17.776Z,10.60
2018-03-25T10:16:45.343Z,10.50
2018-03-25T10:19:12.882Z,10.60
2018-03-25T10:21:40.404Z,10.50
2018-03-25T10:24:07.962Z,10.70
2018-03-25T10:26:36.327Z,10.80
2018-03-25T10:29:04.664Z,10.60
2018-03-25T10:31:32.202Z,10.50
2018-03-25T10:33:59.736Z,10.60
2018-03-25T10:36:28.076Z,10.40
2018-03-25T10:38:55.600Z,10.40
2018-03-25T10:41:23.153Z,10.50
2018-03-25T10:43:50.685Z,10.50
2018-03-25T10:46:18.226Z,10.60
2018-03-25T10:48:45.755Z,10.80
2018-03-25T10:51:13.293Z,10.90
2018-03-25T10:53:41.583Z,10.90
2018-03-25T10:56:09.142Z,10.90
2018-03-25T10:58:37.433Z,10.80
2018-03-25T11:03:51.333Z,10.90
2018-03-25T11:06:18.891Z,10.90
2018-03-25T11:08:46.448Z,11.10
2018-03-25T11:11:14.020Z,11.10
2018-03-25T11:13:41.537Z,11.20
2018-03-25T11:16:09.096Z,11.10
2018-03-25T11:18:36.620Z,11.10
2018-03-25T11:21:04.195Z,11.20
2018-03-25T11:23:32.558Z,11.40
2018-03-25T11:26:01.004Z,11.40
2018-03-25T11:28:29.292Z,11.70
2018-03-25T11:30:57.606Z,11.70
2018-03-25T11:33:25.142Z,11.70
2018-03-25T11:35:52.736Z,11.80
2018-03-25T11:38:21.017Z,11.90
2018-03-25T11:40:49.318Z,11.80
2018-03-25T11:43:17.604Z,11.70
2018-03-25T11:45:45.924Z,11.80
2018-03-25T11:48:13.462Z,11.80
2018-03-25T11:50:41.768Z,12.10
2018-03-25T11:53:09.366Z,12.10
2018-03-25T11:55:37.658Z,12.10
2018-03-25T11:58:05.220Z,12.00
2018-03-25T12:00:32.762Z,12.40
2018-03-25T12:03:01.076Z,12.20
2018-03-25T12:05:28.609Z,12.20
2018-03-25T12:07:56.223Z,12.30
2018-03-25T12:10:23.763Z,12.40
2018-03-25T12:12:52.093Z,12.50
2018-03-25T12:15:19.636Z,12.50
2018-03-25T12:17:47.971Z,12.20
2018-03-25T12:20:15.520Z,12.30
2018-03-25T12:22:43.081Z,12.40
2018-03-25T12:25:10.656Z,12.60
2018-03-25T12:27:38.233Z,12.90
2018-03-25T12:30:06.564Z,13.00
2018-03-25T12:32:34.134Z,13.00
2018-03-25T12:35:02.448Z,12.90
2018-03-25T12:37:30.781Z,12.80
2018-03-25T12:39:58.326Z,12.80
2018-03-25T12:42:26.668Z,12.80
2018-03-25T12:44:54.210Z,12.80
2018-03-25T12:47:21.780Z,12.90
2018-03-25T12:49:49.351Z,13.10
2018-03-25T12:52:17.691Z,13.20
2018-03-25T12:54:45.223Z,13.20
2018-03-25T12:57:12.787Z,13.20
2018-03-25T12:59:40.389Z,13.10
2018-03-25T13:02:07.945Z,13.00
2018-03-25T13:04:35.499Z,13.20
2018-03-25T13:07:03.050Z,13.30
2018-03-25T13:09:32.232Z,13.30
2018-03-25T13:11:59.787Z,13.30
2018-03-25T13:14:27.323Z,12.80
2018-03-25T13:16:54.908Z,12.90
2018-03-25T13:19:22.450Z,13.20
2018-03-25T13:21:50.775Z,13.50
2018-03-25T13:24:18.335Z,13.40
2018-03-25T13:26:45.877Z,13.40
2018-03-25T13:29:13.424Z,13.30
2018-03-25T13:31:40.969Z,13.40
2018-03-25T13:34:08.520Z,13.40
2018-03-25T13:36:36.054Z,13.50
2018-03-25T13:39:03.619Z,13.40
2018-03-25T13:41:31.150Z,13.50
2018-03-25T13:43:58.729Z,13.60
2018-03-25T13:46:26.285Z,13.50
2018-03-25T13:48:53.852Z,13.40
2018-03-25T13:51:21.390Z,13.30
2018-03-25T13:53:48.953Z,13.40
2018-03-25T13:56:16.504Z,13.40
2018-03-25T13:58:44.094Z,13.10
2018-03-25T14:01:11.659Z,13.40
2018-03-25T14:03:39.225Z,13.20
2018-03-25T14:06:06.755Z,13.30
2018-03-25T14:08:35.088Z,13.40
2018-03-25T14:11:02.625Z,13.30
2018-03-25T14:13:30.190Z,13.40
2018-03-25T14:15:57.726Z,13.50
2018-03-25T14:18:25.291Z,13.40
2018-03-25T14:20:52.879Z,13.40
2018-03-25T14:23:20.435Z,13.40
2018-03-25T14:25:48.093Z,13.60
2018-03-25T14:28:15.678Z,13.50
2018-03-25T14:30:43.235Z,13.50
2018-03-25T14:33:10.811Z,13.50
2018-03-25T14:35:38.374Z,13.40
2018-03-25T14:38:05.922Z,13.40
2018-03-25T14:40:33.873Z,13.50
2018-03-25T14:43:01.414Z,13.60
2018-03-25T14:45:28.971Z,13.60
2018-03-25T14:47:56.566Z,13.60
2018-03-25T14:50:24.119Z,13.40
2018-03-25T14:52:51.660Z,13.50
2018-03-25T14:55:19.206Z,13.60
2018-03-25T14:57:46.738Z,13.50
2018-03-25T15:00:14.284Z,13.40
2018-03-25T15:02:41.822Z,13.40
2018-03-25T15:05:10.151Z,13.40
2018-03-25T15:07:37.690Z,13.40
2018-03-25T15:10:05.242Z,13.30
2018-03-25T15:12:33.584Z,13.40
2018-03-25T15:15:01.135Z,13.40
2018-03-25T15:17:29.439Z,13.60
2018-03-25T15:19:56.994Z,13.50
2018-03-25T15:22:25.320Z,13.50
2018-03-25T15:24:52.887Z,13.50
2018-03-25T15:27:20.436Z,13.20
2018-03-25T15:29:48.024Z,13.20
2018-03-25T15:32:15.562Z,13.30
2018-03-25T15:34:43.887Z,13.10
2018-03-25T15:37:11.423Z,13.10
2018-03-25T15:39:38.988Z,13.00
2018-03-25T15:42:06.540Z,13.10
2018-03-25T15:44:34.086Z,13.00
2018-03-25T15:47:01.648Z,12.90
2018-03-25T15:49:29.208Z,12.90
2018-03-25T15:51:56.771Z,13.00
2018-03-25T15:54:25.084Z,12.90
2018-03-25T15:56:52.640Z,12.90
2018-03-25T15:59:20.199Z,13.00
2018-03-25T16:01:48.565Z,12.90
2018-03-25T16:04:16.102Z,12.90
2018-03-25T16:06:43.669Z,12.80
2018-03-25T16:09:11.232Z,12.70
2018-03-25T16:11:38.791Z,12.80
2018-03-25T16:14:07.113Z,12.70
2018-03-25T16:16:34.660Z,12.70
2018-03-25T16:19:02.219Z,12.60
2018-03-25T16:21:30.558Z,12.60
2018-03-25T16:23:58.177Z,12.50
2018-03-25T16:26:26.495Z,12.50
2018-03-25T16:28:54.027Z,12.50
2018-03-25T16:31:21.590Z,12.50
2018-03-25T16:33:49.138Z,12.50
2018-03-25T16:36:16.694Z,12.40
2018-03-25T16:38:44.234Z,12.40
2018-03-25T16:41:12.546Z,12.30
2018-03-25T16:43:40.090Z,12.20
2018-03-25T16:46:08.415Z,12.10
2018-03-25T16:48:35.942Z,12.10
2018-03-25T16:51:04.287Z,11.90
2018-03-25T16:53:31.836Z,11.90
2018-03-25T16:55:59.386Z,11.80
2018-03-25T16:58:27.682Z,11.70
2018-03-25T17:00:55.230Z,11.70
2018-03-25T17:03:23.564Z,11.60
2018-03-25T17:05:51.127Z,11.60
2018-03-25T17:08:18.672Z,11.50
2018-03-25T17:10:46.983Z,11.40
2018-03-25T17:13:14.559Z,11.40
2018-03-25T17:15:42.106Z,11.30
2018-03-25T17:18:10.437Z,11.20
2018-03-25T17:20:37.975Z,11.10
2018-03-25T17:23:06.308Z,11.00
2018-03-25T17:25:33.857Z,11.00
2018-03-25T17:28:01.415Z,11.00
2018-03-25T17:30:29.715Z,10.80
2018-03-25T17:32:57.283Z,10.80
2018-03-25T17:35:24.823Z,10.70
2018-03-25T17:37:52.431Z,10.60
2018-03-25T17:40:19.978Z,10.50
2018-03-25T17:42:47.527Z,10.40
2018-03-25T17:45:20.899Z,10.30
2018-03-25T17:47:48.480Z,10.30
2018-03-25T17:50:16.026Z,10.20
2018-03-25T17:52:43.589Z,10.10
2018-03-25T17:55:12.109Z,10.10
2018-03-25T17:57:40.448Z,10.00
2018-03-25T18:00:08.025Z,10.00
2018-03-25T18:02:36.355Z,9.80
2018-03-25T18:05:03.896Z,9.80
2018-03-25T18:07:31.739Z,9.80
2018-03-25T18:09:59.271Z,9.70
2018-03-25T18:12:26.823Z,9.60
2018-03-25T18:14:55.892Z,9.40
2018-03-25T18:17:34.106Z,9.40
2018-03-25T18:19:51.487Z,9.30
2018-03-25T18:22:20.000Z,9.30
2018-03-25T18:24:47.750Z,9.30
2018-03-25T18:27:15.642Z,9.20
2018-03-25T18:29:45.000Z,9.10
2018-03-25T18:32:14.079Z,9.10
2018-03-25T18:34:43.601Z,9.00
2018-03-25T18:37:11.163Z,8.90
2018-03-25T18:39:38.736Z,8.90
2018-03-25T18:42:06.334Z,8.80
2018-03-25T18:44:33.925Z,8.80
2018-03-25T18:47:01.454Z,8.70
2018-03-25T18:49:30.926Z,8.70
2018-03-25T18:51:58.448Z,8.70
2018-03-25T18:54:26.013Z,8.60
2018-03-25T18:56:54.295Z,8.40
2018-03-25T18:59:23.937Z,8.40
2018-03-25T19:01:51.463Z,8.40
2018-03-25T19:04:19.964Z,8.40
2018-03-25T19:06:48.727Z,8.30
2018-03-25T19:09:16.384Z,8.30
2018-03-25T19:11:44.064Z,8.40
2018-03-25T19:14:11.851Z,8.30
2018-03-25T19:16:40.393Z,8.30
2018-03-25T19:19:09.202Z,8.30
2018-03-25T19:21:36.847Z,8.20
2018-03-25T19:24:04.567Z,8.30
2018-03-25T19:26:32.987Z,8.30
2018-03-25T19:29:01.830Z,8.30
2018-03-25T19:31:29.369Z,8.40
2018-03-25T19:33:56.949Z,8.40
2018-03-25T19:36:24.461Z,8.30
2018-03-25T19:38:52.939Z,8.20
2018-03-25T19:41:26.976Z,8.30
2018-03-25T19:43:54.544Z,8.30
2018-03-25T19:46:22.122Z,8.20
2018-03-25T19:48:49.757Z,8.20
2018-03-25T19:51:17.374Z,8.20
2018-03-25T19:53:45.012Z,8.10
2018-03-25T19:56:12.567Z,8.10
2018-03-25T19:58:40.120Z,8.10
2018-03-25T20:01:08.495Z,8.10
2018-03-25T20:03:36.910Z,8.10
2018-03-25T20:06:04.540Z,8.10
2018-03-25T20:08:32.679Z,8.00
2018-03-25T20:11:03.994Z,8.10
2018-03-25T20:13:32.687Z,8.10
2018-03-25T20:16:01.021Z,8.00
2018-03-25T20:18:28.644Z,8.00
2018-03-25T20:20:58.039Z,8.00
2018-03-25T20:23:25.580Z,7.90
2018-03-25T20:25:53.797Z,7.90
2018-03-25T20:28:21.335Z,7.80
2018-03-25T20:30:48.940Z,7.90
2018-03-25T20:33:17.571Z,7.90
2018-03-25T20:35:45.912Z,7.90
2018-03-25T20:38:14.893Z,7.90
2018-03-25T20:40:42.459Z,7.90
2018-03-25T20:43:10.856Z,7.90
2018-03-25T20:45:39.360Z,7.80
2018-03-25T20:48:06.906Z,7.80
2018-03-25T20:50:35.664Z,7.70
2018-03-25T20:53:03.207Z,7.70
2018-03-25T20:55:31.747Z,7.70
2018-03-25T20:58:00.224Z,7.60
2018-03-25T21:00:27.804Z,7.60
2018-03-25T21:02:57.056Z,7.60
2018-03-25T21:05:25.426Z,7.60
2018-03-25T21:07:53.119Z,7.60
2018-03-25T21:10:24.604Z,7.50
2018-03-25T21:12:53.561Z,7.40
2018-03-25T21:15:21.147Z,7.40
2018-03-25T21:17:48.736Z,7.30
2018-03-25T21:20:17.303Z,7.30
2018-03-25T21:22:44.838Z,7.30
2018-03-25T21:25:12.547Z,7.30
2018-03-25T21:27:40.112Z,7.40
2018-03-25T21:30:09.638Z,7.40
2018-03-25T21:32:37.416Z,7.30
2018-03-25T21:35:05.844Z,7.20
2018-03-25T21:37:34.412Z,7.20
2018-03-25T21:40:02.744Z,7.10
2018-03-25T21:42:31.168Z,7.10
2018-03-25T21:45:00.429Z,7.10
2018-03-25T21:47:28.102Z,7.00
2018-03-25T21:49:56.525Z,6.90
2018-03-25T21:52:28.400Z,6.90
2018-03-25T21:54:55.994Z,6.90
2018-03-25T21:57:24.386Z,6.80
2018-03-25T21:59:51.936Z,6.70
2018-03-25T22:02:19.499Z,6.80
2018-03-25T22:04:47.634Z,6.70
2018-03-25T22:07:15.221Z,6.70
2018-03-25T22:09:42.813Z,6.70
2018-03-25T22:12:11.151Z,6.60
2018-03-25T22:14:38.714Z,6.60
2018-03-25T22:17:06.475Z,6.70
2018-03-25T22:19:34.033Z,6.70
2018-03-25T22:22:02.365Z,6.70
2018-03-25T22:24:29.900Z,6.60
2018-03-25T22:26:57.479Z,6.60
2018-03-25T22:29:25.020Z,6.60
2018-03-25T22:31:52.591Z,6.60
2018-03-25T22:34:20.155Z,6.50
2018-03-25T22:36:47.695Z,6.50
2018-03-25T22:39:15.261Z,6.50
2018-03-25T22:41:42.790Z,6.40
2018-03-25T22:44:10.343Z,6.30
2018-03-25T22:46:37.898Z,6.20
2018-03-25T22:49:05.458Z,6.20
2018-03-25T22:51:33.002Z,6.30
2018-03-25T22:54:00.560Z,6.40
2018-03-25T22:56:28.128Z,6.30
2018-03-25T22:58:55.790Z,6.20
2018-03-25T23:01:24.094Z,6.10
2018-03-25T23:03:52.464Z,6.10
2018-03-25T23:06:20.799Z,6.00
2018-03-25T23:08:48.364Z,6.00
2018-03-25T23:11:15.898Z,5.90
2018-03-25T23:13:43.478Z,5.90
2018-03-25T23:16:11.010Z,5.90
2018-03-25T23:18:38.563Z,5.80
2018-03-25T23:21:06.101Z,5.80
2018-03-25T23:23:34.425Z,5.60
2018-03-25T23:26:01.952Z,5.60
2018-03-25T23:28:29.521Z,5.70
2018-03-25T23:30:57.070Z,5.60
2018-03-25T23:33:24.629Z,5.60
2018-03-25T23:35:52.154Z,5.60
2018-03-25T23:38:20.478Z,5.60
2018-03-25T23:40:48.007Z,5.60
2018-03-25T23:43:15.558Z,5.60
2018-03-25T23:45:44.661Z,5.50
2018-03-25T23:48:12.192Z,5.50
2018-03-25T23:50:39.741Z,5.40
2018-03-25T23:53:08.028Z,5.40
2018-03-25T23:55:36.333Z,5.40
2018-03-25T23:58:04.772Z,5.50
